<?xml version="1.0" encoding="UTF-8" standalone="no" ?>
<gpx xmlns="http://www.topografix.com/GPX/1/1" xmlns:xsi="http://www.w3.org/2001/XMLSchema-instance" xsi:schemaLocation="http://www.topografix.com/GPX/1/1 http://www.topografix.com/GPX/1/1/gpx.xsd" version="1.1" creator="VisuGPX - https://www.visugpx.com">
  <metadata>
    <name>Sortie vélo CE2/CM1 Mornant</name>
    <desc><![CDATA[Sortie vélo école de Morant]]></desc>
  </metadata>
  <wpt lat="42.73746" lon="-0.01152">
    <ele>1350.29</ele>
    <name><![CDATA[MAP]]></name>
  </wpt>
  <trk>
    <name><![CDATA[ACTIVE LOG: 10 JUN 2016 12:51]]></name>
    <trkseg>
      <trkpt lat="45.60637" lon="4.72785">
        <ele>361.59</ele>
        <time>2016-06-10T10:51:54Z</time>
      </trkpt>
      <trkpt lat="45.60639" lon="4.72828">
        <ele>329.87</ele>
        <time>2016-06-10T10:52:22Z</time>
      </trkpt>
      <trkpt lat="45.60641" lon="4.72827">
        <ele>332.27</ele>
        <time>2016-06-10T10:52:40Z</time>
      </trkpt>
      <trkpt lat="45.60642" lon="4.72827">
        <ele>331.79</ele>
        <time>2016-06-10T10:53:12Z</time>
      </trkpt>
      <trkpt lat="45.60647" lon="4.72829">
        <ele>331.31</ele>
        <time>2016-06-10T10:53:19Z</time>
      </trkpt>
      <trkpt lat="45.60666" lon="4.72836">
        <ele>333.23</ele>
        <time>2016-06-10T10:53:29Z</time>
      </trkpt>
      <trkpt lat="45.60706" lon="4.72853">
        <ele>335.64</ele>
        <time>2016-06-10T10:53:49Z</time>
      </trkpt>
      <trkpt lat="45.60713" lon="4.72894">
        <ele>336.12</ele>
        <time>2016-06-10T10:54:04Z</time>
      </trkpt>
      <trkpt lat="45.60716" lon="4.72937">
        <ele>336.12</ele>
        <time>2016-06-10T10:54:20Z</time>
      </trkpt>
      <trkpt lat="45.60712" lon="4.72965">
        <ele>336.6</ele>
        <time>2016-06-10T10:54:32Z</time>
      </trkpt>
      <trkpt lat="45.60715" lon="4.72975">
        <ele>336.6</ele>
        <time>2016-06-10T10:54:36Z</time>
      </trkpt>
      <trkpt lat="45.6076" lon="4.72952">
        <ele>335.64</ele>
        <time>2016-06-10T10:54:52Z</time>
      </trkpt>
      <trkpt lat="45.60807" lon="4.72921">
        <ele>337.08</ele>
        <time>2016-06-10T10:55:12Z</time>
      </trkpt>
      <trkpt lat="45.60841" lon="4.72863">
        <ele>334.2</ele>
        <time>2016-06-10T10:55:34Z</time>
      </trkpt>
      <trkpt lat="45.60877" lon="4.72813">
        <ele>331.31</ele>
        <time>2016-06-10T10:55:55Z</time>
      </trkpt>
      <trkpt lat="45.60916" lon="4.72751">
        <ele>332.75</ele>
        <time>2016-06-10T10:56:16Z</time>
      </trkpt>
      <trkpt lat="45.60938" lon="4.72687">
        <ele>333.71</ele>
        <time>2016-06-10T10:56:35Z</time>
      </trkpt>
      <trkpt lat="45.60955" lon="4.72627">
        <ele>334.2</ele>
        <time>2016-06-10T10:56:53Z</time>
      </trkpt>
      <trkpt lat="45.6097" lon="4.72566">
        <ele>335.64</ele>
        <time>2016-06-10T10:57:10Z</time>
      </trkpt>
      <trkpt lat="45.60998" lon="4.72494">
        <ele>333.23</ele>
        <time>2016-06-10T10:57:32Z</time>
      </trkpt>
      <trkpt lat="45.61017" lon="4.72439">
        <ele>333.23</ele>
        <time>2016-06-10T10:57:48Z</time>
      </trkpt>
      <trkpt lat="45.61047" lon="4.72355">
        <ele>331.79</ele>
        <time>2016-06-10T10:58:07Z</time>
      </trkpt>
      <trkpt lat="45.61066" lon="4.72279">
        <ele>330.35</ele>
        <time>2016-06-10T10:58:25Z</time>
      </trkpt>
      <trkpt lat="45.61083" lon="4.72206">
        <ele>327.95</ele>
        <time>2016-06-10T10:58:41Z</time>
      </trkpt>
      <trkpt lat="45.61105" lon="4.72106">
        <ele>326.02</ele>
        <time>2016-06-10T10:59:01Z</time>
      </trkpt>
      <trkpt lat="45.61123" lon="4.72042">
        <ele>326.02</ele>
        <time>2016-06-10T10:59:16Z</time>
      </trkpt>
      <trkpt lat="45.61168" lon="4.71967">
        <ele>326.99</ele>
        <time>2016-06-10T10:59:34Z</time>
      </trkpt>
      <trkpt lat="45.61211" lon="4.71903">
        <ele>326.5</ele>
        <time>2016-06-10T10:59:54Z</time>
      </trkpt>
      <trkpt lat="45.61254" lon="4.71846">
        <ele>326.5</ele>
        <time>2016-06-10T11:00:14Z</time>
      </trkpt>
      <trkpt lat="45.61295" lon="4.71795">
        <ele>325.54</ele>
        <time>2016-06-10T11:00:35Z</time>
      </trkpt>
      <trkpt lat="45.61326" lon="4.71755">
        <ele>325.06</ele>
        <time>2016-06-10T11:00:52Z</time>
      </trkpt>
      <trkpt lat="45.61382" lon="4.71682">
        <ele>322.18</ele>
        <time>2016-06-10T11:01:09Z</time>
      </trkpt>
      <trkpt lat="45.61464" lon="4.71571">
        <ele>319.78</ele>
        <time>2016-06-10T11:01:30Z</time>
      </trkpt>
      <trkpt lat="45.61517" lon="4.7148">
        <ele>318.33</ele>
        <time>2016-06-10T11:01:47Z</time>
      </trkpt>
      <trkpt lat="45.61569" lon="4.71409">
        <ele>318.33</ele>
        <time>2016-06-10T11:02:05Z</time>
      </trkpt>
      <trkpt lat="45.61615" lon="4.71335">
        <ele>317.85</ele>
        <time>2016-06-10T11:02:26Z</time>
      </trkpt>
      <trkpt lat="45.61645" lon="4.71272">
        <ele>318.33</ele>
        <time>2016-06-10T11:02:43Z</time>
      </trkpt>
      <trkpt lat="45.61692" lon="4.71184">
        <ele>322.18</ele>
        <time>2016-06-10T11:03:03Z</time>
      </trkpt>
      <trkpt lat="45.61734" lon="4.71112">
        <ele>326.5</ele>
        <time>2016-06-10T11:03:21Z</time>
      </trkpt>
      <trkpt lat="45.61776" lon="4.71054">
        <ele>326.02</ele>
        <time>2016-06-10T11:03:38Z</time>
      </trkpt>
      <trkpt lat="45.61823" lon="4.71036">
        <ele>323.62</ele>
        <time>2016-06-10T11:03:53Z</time>
      </trkpt>
      <trkpt lat="45.61844" lon="4.71027">
        <ele>322.66</ele>
        <time>2016-06-10T11:04:01Z</time>
      </trkpt>
      <trkpt lat="45.61856" lon="4.71034">
        <ele>321.7</ele>
        <time>2016-06-10T11:04:11Z</time>
      </trkpt>
      <trkpt lat="45.61867" lon="4.71031">
        <ele>321.22</ele>
        <time>2016-06-10T11:04:19Z</time>
      </trkpt>
      <trkpt lat="45.61879" lon="4.71011">
        <ele>321.22</ele>
        <time>2016-06-10T11:04:23Z</time>
      </trkpt>
      <trkpt lat="45.61906" lon="4.70927">
        <ele>321.22</ele>
        <time>2016-06-10T11:04:38Z</time>
      </trkpt>
      <trkpt lat="45.6193" lon="4.70863">
        <ele>322.18</ele>
        <time>2016-06-10T11:04:54Z</time>
      </trkpt>
      <trkpt lat="45.61983" lon="4.70779">
        <ele>322.66</ele>
        <time>2016-06-10T11:05:18Z</time>
      </trkpt>
      <trkpt lat="45.62019" lon="4.7073">
        <ele>323.62</ele>
        <time>2016-06-10T11:05:34Z</time>
      </trkpt>
      <trkpt lat="45.62064" lon="4.70688">
        <ele>325.06</ele>
        <time>2016-06-10T11:05:53Z</time>
      </trkpt>
      <trkpt lat="45.62098" lon="4.70637">
        <ele>326.5</ele>
        <time>2016-06-10T11:06:10Z</time>
      </trkpt>
      <trkpt lat="45.6215" lon="4.70577">
        <ele>326.02</ele>
        <time>2016-06-10T11:06:32Z</time>
      </trkpt>
      <trkpt lat="45.62197" lon="4.70553">
        <ele>327.47</ele>
        <time>2016-06-10T11:06:49Z</time>
      </trkpt>
      <trkpt lat="45.62246" lon="4.70514">
        <ele>328.43</ele>
        <time>2016-06-10T11:07:10Z</time>
      </trkpt>
      <trkpt lat="45.62291" lon="4.70444">
        <ele>331.79</ele>
        <time>2016-06-10T11:07:34Z</time>
      </trkpt>
      <trkpt lat="45.62347" lon="4.70386">
        <ele>332.75</ele>
        <time>2016-06-10T11:07:56Z</time>
      </trkpt>
      <trkpt lat="45.62402" lon="4.70351">
        <ele>331.79</ele>
        <time>2016-06-10T11:08:14Z</time>
      </trkpt>
      <trkpt lat="45.62443" lon="4.70329">
        <ele>332.75</ele>
        <time>2016-06-10T11:08:29Z</time>
      </trkpt>
      <trkpt lat="45.6251" lon="4.70296">
        <ele>329.39</ele>
        <time>2016-06-10T11:08:52Z</time>
      </trkpt>
      <trkpt lat="45.6255" lon="4.70236">
        <ele>327.47</ele>
        <time>2016-06-10T11:09:11Z</time>
      </trkpt>
      <trkpt lat="45.6258" lon="4.70151">
        <ele>327.95</ele>
        <time>2016-06-10T11:09:34Z</time>
      </trkpt>
      <trkpt lat="45.62585" lon="4.70135">
        <ele>327.47</ele>
        <time>2016-06-10T11:09:39Z</time>
      </trkpt>
      <trkpt lat="45.62577" lon="4.70113">
        <ele>327.95</ele>
        <time>2016-06-10T11:09:47Z</time>
      </trkpt>
      <trkpt lat="45.62535" lon="4.70053">
        <ele>326.02</ele>
        <time>2016-06-10T11:10:06Z</time>
      </trkpt>
      <trkpt lat="45.62486" lon="4.69991">
        <ele>322.18</ele>
        <time>2016-06-10T11:10:27Z</time>
      </trkpt>
      <trkpt lat="45.62445" lon="4.69941">
        <ele>322.18</ele>
        <time>2016-06-10T11:10:43Z</time>
      </trkpt>
      <trkpt lat="45.62423" lon="4.6987">
        <ele>328.91</ele>
        <time>2016-06-10T11:11:01Z</time>
      </trkpt>
      <trkpt lat="45.62435" lon="4.69804">
        <ele>331.79</ele>
        <time>2016-06-10T11:11:15Z</time>
      </trkpt>
      <trkpt lat="45.62449" lon="4.69711">
        <ele>332.27</ele>
        <time>2016-06-10T11:11:32Z</time>
      </trkpt>
      <trkpt lat="45.62425" lon="4.6964">
        <ele>332.27</ele>
        <time>2016-06-10T11:11:48Z</time>
      </trkpt>
      <trkpt lat="45.62403" lon="4.69565">
        <ele>330.35</ele>
        <time>2016-06-10T11:12:02Z</time>
      </trkpt>
      <trkpt lat="45.62377" lon="4.69452">
        <ele>325.54</ele>
        <time>2016-06-10T11:12:18Z</time>
      </trkpt>
      <trkpt lat="45.62374" lon="4.6943">
        <ele>325.54</ele>
        <time>2016-06-10T11:12:21Z</time>
      </trkpt>
      <trkpt lat="45.62345" lon="4.6938">
        <ele>324.58</ele>
        <time>2016-06-10T11:12:33Z</time>
      </trkpt>
      <trkpt lat="45.62309" lon="4.6933">
        <ele>319.3</ele>
        <time>2016-06-10T11:12:46Z</time>
      </trkpt>
      <trkpt lat="45.62275" lon="4.69215">
        <ele>314.01</ele>
        <time>2016-06-10T11:13:05Z</time>
      </trkpt>
      <trkpt lat="45.6226" lon="4.69182">
        <ele>312.09</ele>
        <time>2016-06-10T11:13:11Z</time>
      </trkpt>
      <trkpt lat="45.62231" lon="4.69137">
        <ele>308.72</ele>
        <time>2016-06-10T11:13:23Z</time>
      </trkpt>
      <trkpt lat="45.62213" lon="4.69106">
        <ele>308.24</ele>
        <time>2016-06-10T11:13:31Z</time>
      </trkpt>
      <trkpt lat="45.62195" lon="4.69063">
        <ele>307.76</ele>
        <time>2016-06-10T11:13:42Z</time>
      </trkpt>
      <trkpt lat="45.62171" lon="4.69012">
        <ele>315.45</ele>
        <time>2016-06-10T11:13:56Z</time>
      </trkpt>
      <trkpt lat="45.62139" lon="4.68928">
        <ele>320.74</ele>
        <time>2016-06-10T11:14:19Z</time>
      </trkpt>
      <trkpt lat="45.6211" lon="4.68854">
        <ele>321.7</ele>
        <time>2016-06-10T11:14:41Z</time>
      </trkpt>
      <trkpt lat="45.6209" lon="4.68797">
        <ele>324.58</ele>
        <time>2016-06-10T11:14:59Z</time>
      </trkpt>
      <trkpt lat="45.62067" lon="4.68746">
        <ele>325.54</ele>
        <time>2016-06-10T11:15:16Z</time>
      </trkpt>
      <trkpt lat="45.62041" lon="4.68685">
        <ele>329.39</ele>
        <time>2016-06-10T11:15:35Z</time>
      </trkpt>
      <trkpt lat="45.62009" lon="4.68614">
        <ele>331.31</ele>
        <time>2016-06-10T11:15:55Z</time>
      </trkpt>
      <trkpt lat="45.61986" lon="4.68554">
        <ele>335.16</ele>
        <time>2016-06-10T11:16:13Z</time>
      </trkpt>
      <trkpt lat="45.61971" lon="4.68518">
        <ele>338.04</ele>
        <time>2016-06-10T11:16:25Z</time>
      </trkpt>
      <trkpt lat="45.61969" lon="4.68515">
        <ele>338.04</ele>
        <time>2016-06-10T11:16:27Z</time>
      </trkpt>
      <trkpt lat="45.61966" lon="4.68496">
        <ele>338.52</ele>
        <time>2016-06-10T11:16:35Z</time>
      </trkpt>
      <trkpt lat="45.61958" lon="4.68457">
        <ele>339.48</ele>
        <time>2016-06-10T11:16:48Z</time>
      </trkpt>
      <trkpt lat="45.61973" lon="4.68424">
        <ele>339.96</ele>
        <time>2016-06-10T11:16:59Z</time>
      </trkpt>
      <trkpt lat="45.62001" lon="4.68357">
        <ele>340.44</ele>
        <time>2016-06-10T11:17:18Z</time>
      </trkpt>
      <trkpt lat="45.62003" lon="4.68347">
        <ele>341.41</ele>
        <time>2016-06-10T11:17:29Z</time>
      </trkpt>
      <trkpt lat="45.62003" lon="4.68341">
        <ele>342.37</ele>
        <time>2016-06-10T11:19:57Z</time>
      </trkpt>
      <trkpt lat="45.62003" lon="4.68337">
        <ele>342.37</ele>
        <time>2016-06-10T11:20:09Z</time>
      </trkpt>
      <trkpt lat="45.62003" lon="4.68327">
        <ele>342.85</ele>
        <time>2016-06-10T11:20:16Z</time>
      </trkpt>
      <trkpt lat="45.62011" lon="4.68291">
        <ele>345.25</ele>
        <time>2016-06-10T11:20:31Z</time>
      </trkpt>
      <trkpt lat="45.62008" lon="4.68248">
        <ele>348.13</ele>
        <time>2016-06-10T11:20:48Z</time>
      </trkpt>
      <trkpt lat="45.62005" lon="4.68189">
        <ele>350.54</ele>
        <time>2016-06-10T11:21:11Z</time>
      </trkpt>
      <trkpt lat="45.62007" lon="4.68129">
        <ele>353.9</ele>
        <time>2016-06-10T11:21:31Z</time>
      </trkpt>
      <trkpt lat="45.62026" lon="4.68078">
        <ele>351.5</ele>
        <time>2016-06-10T11:21:49Z</time>
      </trkpt>
      <trkpt lat="45.62038" lon="4.68029">
        <ele>351.02</ele>
        <time>2016-06-10T11:22:02Z</time>
      </trkpt>
      <trkpt lat="45.62029" lon="4.67976">
        <ele>353.42</ele>
        <time>2016-06-10T11:22:18Z</time>
      </trkpt>
      <trkpt lat="45.62001" lon="4.67923">
        <ele>354.38</ele>
        <time>2016-06-10T11:22:37Z</time>
      </trkpt>
      <trkpt lat="45.61983" lon="4.6786">
        <ele>360.15</ele>
        <time>2016-06-10T11:22:55Z</time>
      </trkpt>
      <trkpt lat="45.61983" lon="4.67835">
        <ele>361.59</ele>
        <time>2016-06-10T11:23:02Z</time>
      </trkpt>
      <trkpt lat="45.61956" lon="4.67827">
        <ele>362.55</ele>
        <time>2016-06-10T11:23:14Z</time>
      </trkpt>
      <trkpt lat="45.61911" lon="4.67815">
        <ele>363.52</ele>
        <time>2016-06-10T11:23:31Z</time>
      </trkpt>
      <trkpt lat="45.61866" lon="4.67809">
        <ele>365.92</ele>
        <time>2016-06-10T11:23:49Z</time>
      </trkpt>
      <trkpt lat="45.61829" lon="4.67811">
        <ele>367.84</ele>
        <time>2016-06-10T11:24:05Z</time>
      </trkpt>
      <trkpt lat="45.61821" lon="4.67748">
        <ele>367.36</ele>
        <time>2016-06-10T11:24:17Z</time>
      </trkpt>
      <trkpt lat="45.61843" lon="4.67644">
        <ele>366.4</ele>
        <time>2016-06-10T11:24:35Z</time>
      </trkpt>
      <trkpt lat="45.61866" lon="4.67629">
        <ele>364.48</ele>
        <time>2016-06-10T11:24:45Z</time>
      </trkpt>
      <trkpt lat="45.61909" lon="4.67633">
        <ele>367.36</ele>
        <time>2016-06-10T11:24:59Z</time>
      </trkpt>
      <trkpt lat="45.61928" lon="4.6758">
        <ele>368.32</ele>
        <time>2016-06-10T11:25:13Z</time>
      </trkpt>
      <trkpt lat="45.6194" lon="4.67506">
        <ele>368.8</ele>
        <time>2016-06-10T11:25:31Z</time>
      </trkpt>
      <trkpt lat="45.61961" lon="4.67425">
        <ele>367.36</ele>
        <time>2016-06-10T11:25:49Z</time>
      </trkpt>
      <trkpt lat="45.61995" lon="4.67356">
        <ele>368.32</ele>
        <time>2016-06-10T11:26:05Z</time>
      </trkpt>
      <trkpt lat="45.62026" lon="4.67301">
        <ele>370.73</ele>
        <time>2016-06-10T11:26:22Z</time>
      </trkpt>
      <trkpt lat="45.6204" lon="4.67293">
        <ele>369.76</ele>
        <time>2016-06-10T11:26:28Z</time>
      </trkpt>
      <trkpt lat="45.62059" lon="4.6726">
        <ele>371.69</ele>
        <time>2016-06-10T11:26:39Z</time>
      </trkpt>
      <trkpt lat="45.62107" lon="4.672">
        <ele>372.17</ele>
        <time>2016-06-10T11:27:01Z</time>
      </trkpt>
      <trkpt lat="45.62127" lon="4.67174">
        <ele>370.73</ele>
        <time>2016-06-10T11:27:12Z</time>
      </trkpt>
      <trkpt lat="45.62128" lon="4.6717">
        <ele>371.21</ele>
        <time>2016-06-10T11:27:34Z</time>
      </trkpt>
      <trkpt lat="45.62128" lon="4.67169">
        <ele>371.21</ele>
        <time>2016-06-10T11:27:54Z</time>
      </trkpt>
    </trkseg>
  </trk>
</gpx>